TimeCST,TemperatureF,Dew PointF,Humidity,Sea Level PressureIn,VisibilityMPH,Wind Direction,Wind SpeedMPH,Gust SpeedMPH,PrecipitationIn,Events,Conditions,WindDirDegrees,DateUTC
12:15 AM,-4.0,-7.6,85,30.37,4.0,East,5.8,-,N/A,,Clear,90,2014-02-12 06:15:00
12:35 AM,-5.8,-9.4,84,30.36,4.0,East,5.8,-,N/A,,Clear,100,2014-02-12 06:35:00
12:55 AM,-7.6,-11.2,84,30.35,3.0,East,5.8,-,N/A,,Clear,90,2014-02-12 06:55:00
1:15 AM,-7.6,-13.0,77,30.35,5.0,East,4.6,-,N/A,,Clear,90,2014-02-12 07:15:00
1:35 AM,-4.0,-7.6,85,30.36,7.0,Calm,Calm,-,N/A,,Clear,0,2014-02-12 07:35:00
1:55 AM,-2.2,-5.8,85,30.36,7.0,Calm,Calm,-,N/A,,Clear,0,2014-02-12 07:55:00
2:15 AM,-5.8,-9.4,84,30.36,5.0,East,4.6,-,N/A,,Clear,100,2014-02-12 08:15:00
2:35 AM,-4.0,-7.6,85,30.35,7.0,ESE,4.6,-,N/A,,Clear,120,2014-02-12 08:35:00
2:55 AM,-4.0,-7.6,85,30.34,7.0,ESE,5.8,-,N/A,,Clear,110,2014-02-12 08:55:00
3:15 AM,-5.8,-9.4,84,30.34,7.0,ESE,4.6,-,N/A,,Clear,110,2014-02-12 09:15:00
3:35 AM,-5.8,-7.6,92,30.34,7.0,Calm,Calm,-,N/A,,Clear,0,2014-02-12 09:35:00
3:55 AM,-4.0,-7.6,85,30.33,7.0,Calm,Calm,-,N/A,,Clear,0,2014-02-12 09:55:00
4:15 AM,-7.6,-11.2,84,30.32,7.0,ESE,3.5,-,N/A,,Clear,110,2014-02-12 10:15:00
4:35 AM,-5.8,-9.4,84,30.32,7.0,ESE,3.5,-,N/A,,Clear,120,2014-02-12 10:35:00
4:55 AM,-4.0,-7.6,85,30.31,7.0,Calm,Calm,-,N/A,,Clear,0,2014-02-12 10:55:00
5:15 AM,-4.0,-7.6,85,30.30,7.0,ENE,3.5,-,N/A,,Clear,60,2014-02-12 11:15:00
5:35 AM,-7.6,-13.0,77,30.29,7.0,ENE,4.6,-,N/A,,Clear,70,2014-02-12 11:35:00
5:55 AM,-4.0,-7.6,85,30.30,7.0,NE,3.5,-,N/A,,Clear,40,2014-02-12 11:55:00
6:15 AM,-7.6,-13.0,77,30.29,7.0,ENE,4.6,-,N/A,,Clear,70,2014-02-12 12:15:00
6:35 AM,-9.4,-14.8,77,30.28,7.0,East,4.6,-,N/A,,Clear,80,2014-02-12 12:35:00
6:55 AM,-7.6,-11.2,84,30.29,7.0,East,3.5,-,N/A,,Clear,80,2014-02-12 12:55:00
7:15 AM,-5.8,-9.4,84,30.29,7.0,ENE,4.6,-,N/A,,Clear,60,2014-02-12 13:15:00
7:35 AM,-5.8,-9.4,84,30.29,7.0,East,3.5,-,N/A,,Clear,80,2014-02-12 13:35:00
7:55 AM,-4.0,-7.6,85,30.29,7.0,ENE,4.6,-,N/A,,Clear,60,2014-02-12 13:55:00
8:15 AM,-4.0,-7.6,85,30.29,7.0,ENE,5.8,-,N/A,,Clear,60,2014-02-12 14:15:00
8:35 AM,-0.4,-4.0,85,30.28,7.0,East,5.8,-,N/A,,Mostly Cloudy,90,2014-02-12 14:35:00
8:55 AM,3.2,1.4,92,30.27,10.0,East,4.6,-,N/A,,Mostly Cloudy,100,2014-02-12 14:55:00
9:15 AM,-9999,-9999,N/A,30.28,7.0,ESE,5.8,-,N/A,,Scattered Clouds,110,2014-02-12 15:15:00
9:35 AM,-9999,-9999,N/A,30.28,10.0,ESE,4.6,-,N/A,,Mostly Cloudy,120,2014-02-12 15:35:00
9:55 AM,-9999,-9999,N/A,30.27,10.0,Calm,Calm,-,N/A,,Overcast,0,2014-02-12 15:55:00
10:15 AM,-9999,-9999,N/A,30.27,10.0,Calm,Calm,-,N/A,,Overcast,0,2014-02-12 16:15:00
10:35 AM,-9999,-9999,N/A,30.24,10.0,ESE,4.6,-,N/A,,Overcast,120,2014-02-12 16:35:00
10:55 AM,-9999,-9999,N/A,30.25,10.0,Calm,Calm,-,N/A,,Mostly Cloudy,0,2014-02-12 16:55:00
11:15 AM,-9999,-9999,N/A,30.24,10.0,Calm,Calm,-,N/A,,Scattered Clouds,0,2014-02-12 17:15:00
11:35 AM,14.0,12.2,93,30.21,10.0,East,4.6,-,N/A,,Clear,100,2014-02-12 17:35:00
11:55 AM,15.8,14.0,93,30.20,10.0,Calm,Calm,-,N/A,,Scattered Clouds,0,2014-02-12 17:55:00
12:15 PM,17.6,10.4,73,30.19,10.0,Calm,Calm,-,N/A,,Mostly Cloudy,0,2014-02-12 18:15:00
12:35 PM,17.6,10.4,73,30.19,10.0,Calm,Calm,-,N/A,,Scattered Clouds,0,2014-02-12 18:35:00
12:55 PM,17.6,10.4,73,30.17,7.0,ENE,4.6,-,N/A,,Clear,60,2014-02-12 18:55:00
1:15 PM,17.6,10.4,73,30.15,10.0,NE,4.6,-,N/A,,Clear,40,2014-02-12 19:15:00
1:35 PM,17.6,10.4,73,30.14,7.0,NE,4.6,-,N/A,,Clear,40,2014-02-12 19:35:00
1:55 PM,19.4,10.4,68,30.14,10.0,ENE,5.8,-,N/A,,Clear,60,2014-02-12 19:55:00
2:15 PM,19.4,10.4,68,30.12,10.0,NE,5.8,-,N/A,,Clear,50,2014-02-12 20:15:00
2:35 PM,19.4,12.2,74,30.11,10.0,ENE,6.9,-,N/A,,Clear,70,2014-02-12 20:35:00
2:55 PM,19.4,12.2,74,30.11,10.0,ENE,5.8,-,N/A,,Scattered Clouds,60,2014-02-12 20:55:00
3:15 PM,19.4,12.2,74,30.11,10.0,ENE,5.8,-,N/A,,Scattered Clouds,60,2014-02-12 21:15:00
3:35 PM,19.4,12.2,74,30.11,10.0,NE,5.8,-,N/A,,Clear,50,2014-02-12 21:35:00
3:55 PM,17.6,12.2,79,30.11,10.0,NE,5.8,-,N/A,,Clear,50,2014-02-12 21:55:00
4:15 PM,17.6,10.4,73,30.11,10.0,NE,4.6,-,N/A,,Clear,50,2014-02-12 22:15:00
4:35 PM,17.6,10.4,73,30.09,10.0,ENE,4.6,-,N/A,,Clear,60,2014-02-12 22:35:00
4:55 PM,17.6,10.4,73,30.09,10.0,NE,3.5,-,N/A,,Scattered Clouds,40,2014-02-12 22:55:00
5:15 PM,17.6,10.4,73,30.09,10.0,NNE,3.5,-,N/A,,Scattered Clouds,30,2014-02-12 23:15:00
5:35 PM,17.6,10.4,73,30.09,10.0,NNE,3.5,-,N/A,,Clear,30,2014-02-12 23:35:00
5:55 PM,17.6,8.6,68,30.09,10.0,NE,4.6,-,N/A,,Clear,50,2014-02-12 23:55:00
6:15 PM,14.0,8.6,79,30.10,10.0,ENE,3.5,-,N/A,,Clear,70,2014-02-13 00:15:00
6:35 PM,15.8,10.4,79,30.10,10.0,Calm,Calm,-,N/A,,Clear,0,2014-02-13 00:35:00
6:55 PM,12.2,6.8,79,30.10,10.0,NNE,3.5,-,N/A,,Clear,20,2014-02-13 00:55:00
7:15 PM,10.4,5.0,79,30.09,10.0,NE,4.6,-,N/A,,Clear,50,2014-02-13 01:15:00
7:35 PM,14.0,10.4,86,30.10,10.0,NNE,4.6,-,N/A,,Scattered Clouds,30,2014-02-13 01:35:00
7:55 PM,15.8,8.6,73,30.09,10.0,NE,4.6,-,N/A,,Overcast,50,2014-02-13 01:55:00
8:15 PM,12.2,6.8,79,30.09,10.0,NE,3.5,-,N/A,,Mostly Cloudy,40,2014-02-13 02:15:00
8:35 PM,14.0,8.6,79,30.09,10.0,NE,4.6,-,N/A,,Scattered Clouds,50,2014-02-13 02:35:00
8:55 PM,12.2,8.6,85,30.09,10.0,NE,3.5,-,N/A,,Clear,50,2014-02-13 02:55:00
9:15 PM,12.2,8.6,85,30.07,10.0,ENE,4.6,-,N/A,,Clear,70,2014-02-13 03:15:00
9:35 PM,10.4,6.8,85,30.06,7.0,ENE,4.6,-,N/A,,Clear,70,2014-02-13 03:35:00
9:55 PM,12.2,8.6,85,30.05,7.0,East,4.6,-,N/A,,Clear,80,2014-02-13 03:55:00
10:15 PM,12.2,8.6,85,30.04,7.0,East,4.6,-,N/A,,Clear,80,2014-02-13 04:15:00
10:35 PM,10.4,6.8,85,30.02,7.0,ENE,4.6,-,N/A,,Clear,60,2014-02-13 04:35:00
10:55 PM,10.4,8.6,92,30.02,7.0,NE,4.6,-,N/A,,Clear,50,2014-02-13 04:55:00
11:15 PM,10.4,6.8,85,30.02,7.0,NE,4.6,-,N/A,,Clear,40,2014-02-13 05:15:00
11:35 PM,10.4,6.8,85,30.02,10.0,NE,4.6,-,N/A,,Clear,50,2014-02-13 05:35:00
11:55 PM,10.4,5.0,79,30.02,10.0,NE,4.6,-,N/A,,Clear,50,2014-02-13 05:55:00